createdAt,value
2023-05-05T00:00:01.585Z,0.56
2023-05-05T00:01:01.581Z,0.57
2023-05-05T00:02:01.667Z,0.56
2023-05-05T00:03:01.639Z,0.57
2023-05-05T00:04:01.645Z,0.58
2023-05-05T00:05:01.555Z,0.58
2023-05-05T00:06:01.543Z,0.58
2023-05-05T00:07:01.522Z,0.58
2023-05-05T00:08:01.529Z,0.57
2023-05-05T00:09:01.511Z,0.57
2023-05-05T00:10:01.541Z,0.58
2023-05-05T00:11:01.496Z,0.58
2023-05-05T00:12:01.535Z,0.58
2023-05-05T00:13:01.542Z,0.59
2023-05-05T00:14:01.467Z,0.59
2023-05-05T00:15:01.503Z,0.57
2023-05-05T00:16:01.458Z,0.56
2023-05-05T00:17:01.501Z,0.57
2023-05-05T00:18:01.507Z,0.57
2023-05-05T00:19:01.439Z,0.55
2023-05-05T00:20:01.515Z,0.56
2023-05-05T00:21:01.482Z,0.56
2023-05-05T00:22:01.430Z,0.55
2023-05-05T00:23:01.698Z,0.55
2023-05-05T00:24:01.412Z,0.55
2023-05-05T00:25:01.421Z,0.57
2023-05-05T00:26:01.400Z,0.56
2023-05-05T00:27:01.417Z,0.56
2023-05-05T00:28:01.405Z,0.57
2023-05-05T00:29:01.373Z,0.56
2023-05-05T00:30:01.380Z,0.56
2023-05-05T00:31:01.413Z,0.56
2023-05-05T00:32:01.362Z,0.56
2023-05-05T00:33:01.407Z,0.57
2023-05-05T00:34:01.374Z,0.57
2023-05-05T00:35:01.341Z,0.56
2023-05-05T00:36:01.345Z,0.57
2023-05-05T00:37:01.326Z,0.56
2023-05-05T00:38:01.306Z,0.56
2023-05-05T00:39:01.329Z,0.55
2023-05-05T00:40:01.333Z,0.58
2023-05-05T00:41:01.317Z,0.58
2023-05-05T00:42:01.306Z,0.56
2023-05-05T00:43:01.324Z,0.57
2023-05-05T00:44:01.277Z,0.56
2023-05-05T00:45:01.300Z,0.56
2023-05-05T00:46:01.290Z,0.56
2023-05-05T00:47:01.290Z,0.58
2023-05-05T00:48:01.455Z,0.55
2023-05-05T00:49:01.276Z,0.55
2023-05-05T00:50:01.259Z,0.56
2023-05-05T00:51:01.268Z,0.56
2023-05-05T00:52:01.269Z,0.56
2023-05-05T00:53:01.235Z,0.56
2023-05-05T00:54:01.213Z,0.56
2023-05-05T00:55:01.220Z,0.57
2023-05-05T00:56:01.187Z,0.57
2023-05-05T00:57:01.196Z,0.56
2023-05-05T00:58:01.258Z,0.57
2023-05-05T00:59:01.175Z,0.57
2023-05-05T01:00:01.218Z,0.58
2023-05-05T01:01:01.160Z,0.57
2023-05-05T01:02:01.195Z,0.56
2023-05-05T01:03:01.301Z,0.57
2023-05-05T01:04:01.220Z,0.56
2023-05-05T01:05:01.165Z,0.57
2023-05-05T01:06:01.162Z,0.57
2023-05-05T01:07:01.167Z,0.57
2023-05-05T01:08:01.143Z,0.57
2023-05-05T01:09:01.143Z,0.58
2023-05-05T01:10:15.669Z,0.58
2023-05-05T01:11:02.107Z,0.58
2023-05-05T01:12:01.080Z,0.58
2023-05-05T01:13:01.144Z,0.57
2023-05-05T01:14:01.070Z,0.58
2023-05-05T01:15:01.096Z,0.58
2023-05-05T01:16:01.091Z,0.58
2023-05-05T01:17:01.080Z,0.58
2023-05-05T01:18:01.089Z,0.58
2023-05-05T01:19:01.073Z,0.57
2023-05-05T01:20:01.044Z,0.58
2023-05-05T01:21:01.019Z,0.58
2023-05-05T01:22:01.054Z,0.57
2023-05-05T01:23:01.025Z,0.56
2023-05-05T01:24:01.035Z,0.57
2023-05-05T01:25:01.020Z,0.56
2023-05-05T01:26:01.020Z,0.57
2023-05-05T01:27:00.996Z,0.58
2023-05-05T01:28:01.018Z,0.56
2023-05-05T01:29:00.980Z,0.57
2023-05-05T01:30:01.017Z,0.56
2023-05-05T01:31:00.997Z,0.57
2023-05-05T01:32:01.024Z,0.57
2023-05-05T01:33:00.978Z,0.56
2023-05-05T01:34:00.931Z,0.58
2023-05-05T01:35:00.950Z,0.57
2023-05-05T01:36:01.004Z,0.58
2023-05-05T01:37:00.957Z,0.59
2023-05-05T01:38:00.919Z,0.57
2023-05-05T01:39:00.931Z,0.58
2023-05-05T01:40:00.950Z,0.57
2023-05-05T01:41:00.990Z,0.57
2023-05-05T01:42:01.037Z,0.57
2023-05-05T01:43:01.016Z,0.56
2023-05-05T01:44:01.047Z,0.57
2023-05-05T01:45:01.052Z,0.55
2023-05-05T01:46:01.104Z,0.56
2023-05-05T01:47:01.084Z,0.55
2023-05-05T01:48:01.268Z,0.56
2023-05-05T01:49:01.110Z,0.56
2023-05-05T01:50:01.142Z,0.56
2023-05-05T01:51:01.125Z,0.57
2023-05-05T01:52:01.127Z,0.57
2023-05-05T01:53:01.158Z,0.57
2023-05-05T01:54:01.165Z,0.56
2023-05-05T01:55:01.175Z,0.56
2023-05-05T01:56:01.205Z,0.57
2023-05-05T01:57:01.232Z,0.56
2023-05-05T01:58:01.249Z,0.57
2023-05-05T01:59:01.229Z,0.56
2023-05-05T02:00:01.247Z,0.57
2023-05-05T02:01:01.247Z,0.58
2023-05-05T02:02:01.310Z,0.57
2023-05-05T02:03:01.426Z,0.56
2023-05-05T02:04:01.273Z,0.58
2023-05-05T02:05:01.284Z,0.56
2023-05-05T02:06:01.296Z,0.54
2023-05-05T02:07:01.314Z,0.55
2023-05-05T02:08:01.358Z,0.56
2023-05-05T02:09:01.390Z,0.55
2023-05-05T02:10:01.378Z,0.56
2023-05-05T02:11:01.375Z,0.55
2023-05-05T02:12:01.414Z,0.57
2023-05-05T02:13:01.518Z,0.56
2023-05-05T02:14:01.494Z,0.56
2023-05-05T02:15:01.435Z,0.57
2023-05-05T02:16:01.467Z,0.56
2023-05-05T02:17:01.473Z,0.55
2023-05-05T02:18:01.526Z,0.55
2023-05-05T02:19:01.489Z,0.55
2023-05-05T02:20:01.498Z,0.56
2023-05-05T02:21:01.538Z,0.56
2023-05-05T02:22:01.557Z,0.56
2023-05-05T02:23:01.740Z,0.55
2023-05-05T02:24:01.638Z,0.55
2023-05-05T02:25:01.637Z,0.56
2023-05-05T02:26:01.620Z,0.55
2023-05-05T02:27:01.633Z,0.55
2023-05-05T02:28:01.651Z,0.57
2023-05-05T02:29:01.665Z,0.57
2023-05-05T02:30:01.683Z,0.57
2023-05-05T02:31:01.742Z,0.57
2023-05-05T02:32:01.733Z,0.58
2023-05-05T02:33:01.766Z,0.57
2023-05-05T02:34:01.717Z,0.58
2023-05-05T02:35:01.770Z,0.57
2023-05-05T02:36:01.788Z,0.58
2023-05-05T02:37:01.787Z,0.57
2023-05-05T02:38:01.891Z,0.58
2023-05-05T02:39:01.844Z,0.57
2023-05-05T02:40:01.847Z,0.58
2023-05-05T02:41:01.842Z,0.57
2023-05-05T02:42:01.844Z,0.58
2023-05-05T02:43:01.955Z,0.57
2023-05-05T02:44:01.935Z,0.58
2023-05-05T02:45:01.947Z,0.56
2023-05-05T02:46:01.981Z,0.59
2023-05-05T02:47:01.948Z,0.57
2023-05-05T02:48:02.047Z,0.57
2023-05-05T02:49:02.001Z,0.59
2023-05-05T02:50:02.018Z,0.57
2023-05-05T02:51:02.042Z,0.58
2023-05-05T02:52:02.048Z,0.58
2023-05-05T02:53:02.065Z,0.58
2023-05-05T02:54:02.097Z,0.58
2023-05-05T02:55:02.133Z,0.57
2023-05-05T02:56:02.125Z,0.56
2023-05-05T02:57:02.165Z,0.56
2023-05-05T02:58:02.199Z,0.57
2023-05-05T02:59:02.202Z,0.57
2023-05-05T03:00:02.213Z,0.56
2023-05-05T03:01:02.222Z,0.56
2023-05-05T03:02:02.308Z,0.58
2023-05-05T03:03:02.429Z,0.56
2023-05-05T03:04:02.326Z,0.57
2023-05-05T03:05:02.321Z,0.56
2023-05-05T03:06:02.361Z,0.57
2023-05-05T03:07:02.336Z,0.57
2023-05-05T03:08:02.392Z,0.56
2023-05-05T03:09:02.458Z,0.57
2023-05-05T03:10:02.388Z,0.57
2023-05-05T03:11:02.413Z,0.56
2023-05-05T03:12:02.458Z,0.55
2023-05-05T03:13:02.489Z,0.56
2023-05-05T03:14:02.546Z,0.56
2023-05-05T03:15:02.501Z,0.56
2023-05-05T03:16:02.546Z,0.56
2023-05-05T03:17:02.515Z,0.55
2023-05-05T03:18:02.578Z,0.57
2023-05-05T03:19:02.516Z,0.57
2023-05-05T03:20:03.903Z,0.56
2023-05-05T03:21:02.622Z,0.56
2023-05-05T03:22:02.569Z,0.57
2023-05-05T03:23:02.595Z,0.55
2023-05-05T03:24:02.597Z,0.55
2023-05-05T03:25:02.610Z,0.55
2023-05-05T03:26:02.663Z,0.56
2023-05-05T03:27:02.683Z,0.56
2023-05-05T03:28:02.729Z,0.56
2023-05-05T03:29:02.734Z,0.54
2023-05-05T03:30:02.815Z,0.55
2023-05-05T03:31:02.811Z,0.55
2023-05-05T03:32:02.900Z,0.55
2023-05-05T03:33:02.895Z,0.55
2023-05-05T03:34:02.779Z,0.57
2023-05-05T03:35:02.830Z,0.57
2023-05-05T03:36:02.842Z,0.56
2023-05-05T03:37:02.892Z,0.57
2023-05-05T03:38:02.903Z,0.56
2023-05-05T03:39:02.934Z,0.57
2023-05-05T03:40:02.933Z,0.58
2023-05-05T03:41:02.973Z,0.56
2023-05-05T03:42:02.976Z,0.58
2023-05-05T03:43:03.003Z,0.58
2023-05-05T03:44:02.968Z,0.58
2023-05-05T03:45:03.007Z,0.58
2023-05-05T03:46:03.030Z,0.58
2023-05-05T03:47:03.034Z,0.56
2023-05-05T03:48:03.085Z,0.57
2023-05-05T03:49:03.078Z,0.58
2023-05-05T03:50:03.152Z,0.56
2023-05-05T03:51:03.127Z,0.57
2023-05-05T03:52:03.125Z,0.58
2023-05-05T03:53:03.269Z,0.58
2023-05-05T03:54:03.179Z,0.58
2023-05-05T03:55:03.197Z,0.58
2023-05-05T03:56:03.192Z,0.57
2023-05-05T03:57:03.238Z,0.58
2023-05-05T03:58:03.258Z,0.57
2023-05-05T03:59:03.255Z,0.56
2023-05-05T04:00:03.307Z,0.58
2023-05-05T04:01:03.297Z,0.57
2023-05-05T04:02:03.377Z,0.58
2023-05-05T04:03:03.408Z,0.57
2023-05-05T04:04:03.421Z,0.56
2023-05-05T04:05:03.391Z,0.58
2023-05-05T04:06:03.414Z,0.58
2023-05-05T04:07:03.415Z,0.57
2023-05-05T04:08:03.457Z,0.57
2023-05-05T04:09:03.510Z,0.57
2023-05-05T04:10:03.487Z,0.57
2023-05-05T04:11:03.471Z,0.57
2023-05-05T04:12:03.505Z,0.57
2023-05-05T04:13:03.548Z,0.58
2023-05-05T04:14:03.510Z,0.58
2023-05-05T04:15:03.583Z,0.58
2023-05-05T04:16:03.648Z,0.57
2023-05-05T04:17:03.591Z,0.58
2023-05-05T04:18:03.661Z,0.58
2023-05-05T04:19:03.630Z,0.56
2023-05-05T04:20:03.630Z,0.57
2023-05-05T04:21:03.693Z,0.57
2023-05-05T04:22:03.723Z,0.57
2023-05-05T04:23:03.764Z,0.57
2023-05-05T04:24:03.739Z,0.57
2023-05-05T04:25:03.747Z,0.57
2023-05-05T04:26:03.752Z,0.58
2023-05-05T04:27:03.767Z,0.58
2023-05-05T04:28:03.829Z,0.58
2023-05-05T04:29:03.788Z,0.57
2023-05-05T04:30:03.843Z,0.57
2023-05-05T04:31:03.897Z,0.56
2023-05-05T04:32:03.876Z,0.57
2023-05-05T04:33:03.941Z,0.58
2023-05-05T04:34:03.915Z,0.58
2023-05-05T04:35:03.941Z,0.59
2023-05-05T04:36:03.979Z,0.59
2023-05-05T04:37:03.964Z,0.59
2023-05-05T04:38:03.990Z,0.59
2023-05-05T04:39:04.023Z,0.57
2023-05-05T04:40:04.000Z,0.58
2023-05-05T04:41:04.047Z,0.59
2023-05-05T04:42:04.066Z,0.59
2023-05-05T04:43:04.114Z,0.57
2023-05-05T04:44:04.108Z,0.58
2023-05-05T04:45:04.100Z,0.58
2023-05-05T04:46:04.203Z,0.59
2023-05-05T04:47:04.167Z,0.59
2023-05-05T04:48:04.193Z,0.59
2023-05-05T04:49:04.209Z,0.57
2023-05-05T04:50:04.247Z,0.56
2023-05-05T04:51:04.267Z,0.54
2023-05-05T04:52:04.303Z,0.53
2023-05-05T04:53:04.340Z,0.53
2023-05-05T04:54:04.351Z,0.55
2023-05-05T04:55:04.377Z,0.75
2023-05-05T04:56:04.404Z,1.10
2023-05-05T04:57:04.443Z,1.24
2023-05-05T04:58:04.435Z,1.24
2023-05-05T04:59:04.478Z,1.21
2023-05-05T05:00:04.531Z,1.12
2023-05-05T05:01:04.517Z,0.98
2023-05-05T05:02:04.672Z,0.88
2023-05-05T05:03:04.971Z,0.82
2023-05-05T05:04:04.727Z,0.78
2023-05-05T05:05:04.696Z,0.78
2023-05-05T05:06:04.715Z,0.77
2023-05-05T05:07:04.755Z,0.76
2023-05-05T05:08:04.786Z,0.75
2023-05-05T05:09:04.840Z,0.74
2023-05-05T05:10:04.862Z,0.75
2023-05-05T05:11:04.908Z,0.74
2023-05-05T05:12:04.946Z,0.75
2023-05-05T05:13:05.040Z,0.74
2023-05-05T05:14:05.036Z,0.75
2023-05-05T05:15:05.084Z,0.73
2023-05-05T05:16:05.127Z,0.74
2023-05-05T05:17:05.167Z,0.71
2023-05-05T05:18:05.248Z,0.71
2023-05-05T05:19:05.236Z,0.71
2023-05-05T05:20:05.317Z,0.71
2023-05-05T05:21:05.310Z,0.70
2023-05-05T05:22:05.357Z,0.72
2023-05-05T05:23:05.394Z,0.72
2023-05-05T05:24:05.457Z,0.72
2023-05-05T05:25:05.492Z,0.72
2023-05-05T05:26:05.520Z,0.72
2023-05-05T05:27:06.415Z,0.71
2023-05-05T05:28:10.685Z,0.71
2023-05-05T05:29:06.659Z,0.71
2023-05-05T05:30:05.750Z,0.71
2023-05-05T05:31:05.591Z,0.71
2023-05-05T05:32:05.597Z,0.70
2023-05-05T05:33:05.621Z,0.71
2023-05-05T05:34:05.591Z,0.70
2023-05-05T05:35:05.617Z,0.70
2023-05-05T05:36:05.638Z,0.71
2023-05-05T05:37:05.576Z,0.72
2023-05-05T05:38:05.525Z,0.72
2023-05-05T05:39:05.809Z,0.75
2023-05-05T05:40:05.660Z,0.73
2023-05-05T05:41:05.803Z,0.73
2023-05-05T05:42:05.881Z,0.73
2023-05-05T05:43:05.780Z,0.72
2023-05-05T05:44:05.809Z,0.71
2023-05-05T05:45:05.832Z,0.73
2023-05-05T05:46:08.910Z,0.73
2023-05-05T05:47:05.853Z,0.77
2023-05-05T05:48:05.911Z,0.80
2023-05-05T05:49:05.847Z,0.79
2023-05-05T05:50:06.062Z,0.82
2023-05-05T05:51:05.867Z,0.86
2023-05-05T05:52:05.847Z,0.92
2023-05-05T05:53:05.822Z,0.96
2023-05-05T05:54:05.854Z,0.99
2023-05-05T05:55:05.829Z,1.03
2023-05-05T05:56:05.799Z,1.05
2023-05-05T05:57:05.800Z,1.11
2023-05-05T05:58:05.801Z,1.15
2023-05-05T05:59:05.804Z,1.29
2023-05-05T06:00:05.990Z,1.30
2023-05-05T06:01:05.787Z,1.33
2023-05-05T06:02:05.823Z,1.13
2023-05-05T06:03:05.798Z,1.33
2023-05-05T06:04:05.908Z,1.45
2023-05-05T06:05:05.746Z,1.54
2023-05-05T06:06:05.878Z,1.64
2023-05-05T06:07:05.723Z,1.65
2023-05-05T06:08:05.736Z,1.75
2023-05-05T06:09:05.822Z,1.88
2023-05-05T06:10:22.913Z,1.94
2023-05-05T06:11:06.715Z,1.95
2023-05-05T06:12:05.708Z,1.97
2023-05-05T06:13:05.717Z,2.06
2023-05-05T06:14:05.847Z,2.22
2023-05-05T06:15:05.642Z,2.45
2023-05-05T06:16:05.665Z,2.59
2023-05-05T06:17:05.678Z,2.62
2023-05-05T06:18:05.665Z,2.84
2023-05-05T06:19:05.637Z,2.82
2023-05-05T06:20:05.776Z,2.98
2023-05-05T06:21:05.635Z,3.06
2023-05-05T06:22:05.626Z,3.12
2023-05-05T06:23:05.596Z,3.32
2023-05-05T06:24:05.847Z,3.41
2023-05-05T06:25:05.621Z,3.40
2023-05-05T06:26:05.575Z,3.48
2023-05-05T06:27:05.592Z,3.81
2023-05-05T06:28:05.679Z,3.86
2023-05-05T06:29:05.840Z,3.93
2023-05-05T06:30:05.840Z,4.01
2023-05-05T06:31:05.723Z,4.17
2023-05-05T06:32:05.739Z,4.30
2023-05-05T06:33:05.773Z,4.45
2023-05-05T06:34:05.827Z,4.56
2023-05-05T06:35:05.819Z,4.64
2023-05-05T06:36:05.896Z,4.82
2023-05-05T06:37:05.897Z,4.94
2023-05-05T06:38:05.986Z,5.13
2023-05-05T06:39:06.333Z,5.13
2023-05-05T06:40:06.131Z,5.29
2023-05-05T06:41:06.034Z,5.31
2023-05-05T06:42:06.121Z,5.58
2023-05-05T06:43:06.149Z,5.75
2023-05-05T06:44:06.155Z,5.92
2023-05-05T06:45:06.273Z,5.82
2023-05-05T06:46:06.243Z,6.02
2023-05-05T06:47:06.301Z,6.19
2023-05-05T06:48:06.322Z,6.30
2023-05-05T06:49:06.323Z,6.55
2023-05-05T06:50:06.645Z,6.83
2023-05-05T06:51:06.344Z,6.76
2023-05-05T06:52:06.354Z,6.96
2023-05-05T06:53:06.394Z,7.18
2023-05-05T06:54:06.422Z,7.23
2023-05-05T06:55:06.442Z,7.40
2023-05-05T06:56:06.436Z,7.45
2023-05-05T06:57:06.501Z,7.57
2023-05-05T06:58:06.535Z,7.45
2023-05-05T06:59:06.841Z,7.48
2023-05-05T07:00:06.839Z,7.58
2023-05-05T07:01:06.781Z,7.42
2023-05-05T07:02:06.678Z,7.42
2023-05-05T07:03:06.842Z,7.40
2023-05-05T07:04:07.119Z,7.37
2023-05-05T07:05:06.819Z,7.22
2023-05-05T07:06:06.886Z,7.24
2023-05-05T07:07:06.896Z,7.13
2023-05-05T07:08:06.916Z,7.05
2023-05-05T07:09:06.986Z,6.96
2023-05-05T07:10:07.180Z,6.71
2023-05-05T07:11:07.000Z,6.71
2023-05-05T07:12:07.003Z,6.70
2023-05-05T07:13:07.075Z,6.54
2023-05-05T07:14:07.063Z,6.43
2023-05-05T07:15:19.182Z,6.37
2023-05-05T07:16:08.068Z,6.37
2023-05-05T07:17:07.152Z,6.37
2023-05-05T07:18:07.103Z,6.13
2023-05-05T07:19:07.068Z,6.03
2023-05-05T07:20:07.132Z,5.94
2023-05-05T07:21:06.999Z,5.86
2023-05-05T07:22:07.015Z,5.76
2023-05-05T07:23:06.976Z,5.62
2023-05-05T07:24:07.026Z,5.61
2023-05-05T07:25:06.960Z,5.47
2023-05-05T07:26:06.954Z,5.40
2023-05-05T07:27:06.970Z,5.30
2023-05-05T07:28:06.983Z,5.29
2023-05-05T07:29:06.957Z,5.31
2023-05-05T07:30:11.134Z,5.20
2023-05-05T07:31:07.955Z,5.20
2023-05-05T07:32:06.942Z,5.21
2023-05-05T07:33:07.000Z,5.19
2023-05-05T07:34:06.916Z,5.04
2023-05-05T07:35:06.889Z,4.99
2023-05-05T07:36:06.909Z,4.97
2023-05-05T07:37:06.917Z,4.87
2023-05-05T07:38:08.665Z,4.85
2023-05-05T07:39:06.977Z,4.80
2023-05-05T07:40:07.203Z,4.68
2023-05-05T07:41:07.027Z,4.62
2023-05-05T07:42:07.073Z,4.57
2023-05-05T07:43:07.085Z,4.54
2023-05-05T07:44:07.105Z,4.60
2023-05-05T07:45:07.124Z,4.40
2023-05-05T07:46:07.183Z,4.37
2023-05-05T07:47:07.195Z,4.28
2023-05-05T07:48:07.221Z,4.37
2023-05-05T07:49:07.305Z,4.29
2023-05-05T07:50:07.410Z,4.12
2023-05-05T07:51:07.282Z,4.09
2023-05-05T07:52:07.274Z,4.17
2023-05-05T07:53:14.542Z,3.66
2023-05-05T07:54:08.322Z,3.67
2023-05-05T07:55:07.304Z,3.68
2023-05-05T07:56:07.304Z,3.59
2023-05-05T07:57:07.301Z,2.73
2023-05-05T07:58:07.278Z,2.46
2023-05-05T07:59:07.263Z,2.86
2023-05-05T08:00:07.447Z,3.00
2023-05-05T08:01:07.248Z,3.16
2023-05-05T08:02:07.287Z,3.21
2023-05-05T08:03:09.737Z,3.24
2023-05-05T08:04:07.463Z,3.25
2023-05-05T08:05:07.614Z,3.28
2023-05-05T08:06:07.234Z,3.38
2023-05-05T08:07:07.226Z,3.53
2023-05-05T08:08:07.205Z,3.80
2023-05-05T08:09:07.229Z,3.91
2023-05-05T08:10:07.212Z,4.02
2023-05-05T08:11:07.211Z,4.12
2023-05-05T08:12:07.219Z,4.14
2023-05-05T08:13:07.201Z,4.37
2023-05-05T08:14:07.357Z,4.54
2023-05-05T08:15:07.402Z,4.65
2023-05-05T08:16:07.208Z,4.67
2023-05-05T08:17:07.193Z,4.99
2023-05-05T08:18:07.242Z,5.24
2023-05-05T08:19:17.600Z,5.19
2023-05-05T08:20:08.130Z,5.20
2023-05-05T08:21:07.218Z,5.25
2023-05-05T08:22:07.122Z,5.33
2023-05-05T08:23:07.110Z,5.54
2023-05-05T08:24:07.410Z,5.99
2023-05-05T08:25:07.229Z,6.06
2023-05-05T08:26:07.103Z,6.22
2023-05-05T08:27:07.129Z,6.25
2023-05-05T08:28:07.065Z,6.43
2023-05-05T08:29:07.389Z,6.66
2023-05-05T08:30:07.071Z,6.41
2023-05-05T08:31:07.121Z,6.78
2023-05-05T08:32:07.073Z,7.10
2023-05-05T08:33:07.048Z,6.34
2023-05-05T08:34:07.411Z,4.98
2023-05-05T08:35:07.573Z,3.35
2023-05-05T08:36:07.020Z,3.65
2023-05-05T08:37:07.085Z,3.76
2023-05-05T08:38:07.034Z,3.51
2023-05-05T08:39:08.024Z,3.36
2023-05-05T08:40:07.010Z,3.11
2023-05-05T08:41:07.008Z,2.50
2023-05-05T08:42:07.181Z,2.27
2023-05-05T08:43:06.997Z,2.36
2023-05-05T08:44:07.012Z,2.56
2023-05-05T08:45:07.169Z,2.65
2023-05-05T08:46:06.962Z,2.72
2023-05-05T08:47:06.996Z,2.91
2023-05-05T08:48:06.991Z,3.96
2023-05-05T08:49:06.969Z,3.87
2023-05-05T08:50:06.918Z,3.58
2023-05-05T08:51:06.985Z,3.62
2023-05-05T08:52:06.919Z,3.68
2023-05-05T08:53:06.921Z,3.69
2023-05-05T08:54:07.394Z,3.62
2023-05-05T08:55:07.072Z,3.53
2023-05-05T08:56:06.915Z,3.59
2023-05-05T08:57:06.919Z,3.61
2023-05-05T08:58:06.917Z,3.73
2023-05-05T08:59:06.940Z,3.67
2023-05-05T09:00:06.936Z,3.66
2023-05-05T09:01:07.031Z,3.24
2023-05-05T09:02:07.009Z,2.78
2023-05-05T09:03:07.329Z,2.57
2023-05-05T09:04:07.038Z,2.43
2023-05-05T09:05:07.270Z,2.26
2023-05-05T09:06:07.047Z,2.10
2023-05-05T09:07:07.096Z,1.85
2023-05-05T09:08:07.115Z,1.93
2023-05-05T09:09:07.228Z,1.79
2023-05-05T09:10:07.141Z,1.78
2023-05-05T09:11:07.140Z,1.78
2023-05-05T09:12:07.156Z,1.71
2023-05-05T09:13:07.229Z,1.66
2023-05-05T09:14:07.228Z,1.62
2023-05-05T09:15:07.378Z,1.62
2023-05-05T09:16:07.222Z,1.42
2023-05-05T09:17:07.360Z,1.37
2023-05-05T09:18:07.296Z,1.34
2023-05-05T09:19:07.408Z,1.31
2023-05-05T09:20:07.412Z,1.24
2023-05-05T09:21:07.322Z,1.27
2023-05-05T09:22:07.339Z,1.25
2023-05-05T09:23:07.364Z,1.19
2023-05-05T09:24:08.548Z,1.18
2023-05-05T09:25:07.758Z,1.18
2023-05-05T09:26:07.423Z,1.13
2023-05-05T09:27:07.439Z,1.16
2023-05-05T09:28:07.452Z,0.80
2023-05-05T09:29:07.446Z,0.93
2023-05-05T09:30:07.899Z,0.94
2023-05-05T09:31:07.551Z,1.02
2023-05-05T09:32:07.512Z,1.01
2023-05-05T09:33:07.557Z,1.03
2023-05-05T09:34:07.515Z,1.02
2023-05-05T09:35:08.037Z,1.01
2023-05-05T09:36:07.551Z,1.04
2023-05-05T09:37:07.548Z,1.04
2023-05-05T09:38:07.554Z,1.06
2023-05-05T09:39:07.664Z,1.00
2023-05-05T09:40:07.657Z,1.06
2023-05-05T09:41:07.687Z,0.97
2023-05-05T09:42:07.808Z,1.06
2023-05-05T09:43:07.811Z,1.04
2023-05-05T09:44:07.856Z,1.12
2023-05-05T09:45:08.019Z,1.10
2023-05-05T09:46:08.046Z,1.11
2023-05-05T09:47:22.017Z,1.11
2023-05-05T09:48:08.975Z,1.12
2023-05-05T09:49:07.980Z,1.13
2023-05-05T09:50:08.628Z,1.16
2023-05-05T09:51:07.965Z,1.18
2023-05-05T09:52:07.957Z,1.21
2023-05-05T09:53:07.975Z,1.21
2023-05-05T09:54:07.954Z,1.20
2023-05-05T09:55:08.443Z,1.22
2023-05-05T09:56:07.939Z,1.13
2023-05-05T09:57:07.993Z,1.14
2023-05-05T09:58:07.928Z,1.19
2023-05-05T09:59:07.913Z,1.18
2023-05-05T10:00:08.229Z,1.16
2023-05-05T10:01:07.947Z,1.17
2023-05-05T10:02:07.886Z,1.28
2023-05-05T10:03:07.969Z,1.26
2023-05-05T10:04:07.888Z,1.26
2023-05-05T10:05:07.980Z,1.34
2023-05-05T10:06:07.922Z,1.34
2023-05-05T10:07:07.887Z,1.36
2023-05-05T10:08:07.941Z,1.34
2023-05-05T10:09:07.924Z,1.32
2023-05-05T10:10:08.821Z,1.36
2023-05-05T10:11:07.958Z,1.34
2023-05-05T10:12:08.003Z,1.38
2023-05-05T10:13:08.140Z,1.38
2023-05-05T10:14:08.041Z,1.39
2023-05-05T10:15:08.406Z,1.43
2023-05-05T10:16:08.142Z,1.44
2023-05-05T10:17:08.131Z,1.47
2023-05-05T10:18:08.690Z,1.45
2023-05-05T10:19:08.168Z,1.47
2023-05-05T10:20:08.415Z,1.48
2023-05-05T10:21:08.235Z,1.50
2023-05-05T10:22:08.331Z,1.51
2023-05-05T10:23:08.386Z,1.50
2023-05-05T10:24:08.335Z,1.53
2023-05-05T10:25:08.409Z,1.53
2023-05-05T10:26:08.441Z,1.54
2023-05-05T10:27:08.469Z,1.52
2023-05-05T10:28:08.509Z,1.54
2023-05-05T10:29:08.623Z,1.55
2023-05-05T10:30:09.117Z,1.55
2023-05-05T10:31:20.450Z,1.56
2023-05-05T10:32:33.500Z,1.56
2023-05-05T10:34:08.769Z,1.57
2023-05-05T10:35:08.943Z,1.58
2023-05-05T10:36:08.582Z,1.59
2023-05-05T10:37:08.556Z,1.59
2023-05-05T10:38:08.573Z,1.61
2023-05-05T10:39:08.538Z,1.59
2023-05-05T10:40:09.097Z,1.64
2023-05-05T10:41:08.512Z,1.62
2023-05-05T10:42:08.539Z,1.57
2023-05-05T10:43:08.509Z,1.63
2023-05-05T10:44:08.513Z,1.60
2023-05-05T10:45:09.066Z,1.60
2023-05-05T10:46:08.579Z,1.57
2023-05-05T10:47:08.619Z,1.63
2023-05-05T10:48:08.672Z,1.59
2023-05-05T10:49:10.057Z,1.62
2023-05-05T10:50:09.194Z,1.63
2023-05-05T10:51:08.686Z,1.60
2023-05-05T10:52:08.688Z,1.56
2023-05-05T10:53:08.710Z,1.62
2023-05-05T10:54:08.715Z,1.55
2023-05-05T10:55:08.927Z,1.60
2023-05-05T10:56:08.655Z,1.57
2023-05-05T10:57:08.659Z,1.60
2023-05-05T10:58:08.629Z,1.59
2023-05-05T10:59:08.641Z,1.59
2023-05-05T11:00:09.151Z,1.57
2023-05-05T11:01:08.681Z,1.55
2023-05-05T11:02:08.606Z,1.60
2023-05-05T11:03:08.712Z,1.60
2023-05-05T11:04:08.675Z,1.56
2023-05-05T11:05:08.949Z,1.56
2023-05-05T11:06:08.581Z,1.59
2023-05-05T11:07:10.481Z,1.58
2023-05-05T11:08:09.571Z,1.58
2023-05-05T11:09:08.578Z,1.59
2023-05-05T11:10:09.181Z,1.59
2023-05-05T11:11:08.545Z,1.59
2023-05-05T11:12:08.569Z,1.62
2023-05-05T11:13:08.634Z,1.59
2023-05-05T11:14:08.503Z,1.60
2023-05-05T11:15:08.933Z,1.64
2023-05-05T11:16:08.569Z,1.66
2023-05-05T11:17:08.605Z,1.66
2023-05-05T11:18:08.911Z,1.66
2023-05-05T11:19:08.580Z,1.66
2023-05-05T11:20:09.329Z,1.66
2023-05-05T11:21:08.682Z,1.67
2023-05-05T11:22:08.765Z,1.68
2023-05-05T11:23:08.796Z,1.71
2023-05-05T11:24:08.805Z,1.69
2023-05-05T11:25:08.953Z,1.70
2023-05-05T11:26:08.938Z,1.71
2023-05-05T11:27:08.948Z,1.77
2023-05-05T11:28:08.994Z,1.74
2023-05-05T11:29:09.038Z,1.71
2023-05-05T11:30:09.428Z,1.74
2023-05-05T11:31:09.175Z,1.78
2023-05-05T11:32:09.175Z,1.76
2023-05-05T11:33:09.281Z,1.77
2023-05-05T11:34:09.340Z,1.79
2023-05-05T11:35:09.449Z,1.80
2023-05-05T11:36:09.353Z,1.83
2023-05-05T11:37:09.401Z,1.84
2023-05-05T11:38:09.444Z,1.84
2023-05-05T11:39:09.474Z,1.63
2023-05-05T11:40:09.868Z,1.43
2023-05-05T11:41:09.554Z,1.16
2023-05-05T11:42:11.000Z,1.18
2023-05-05T11:43:09.625Z,1.17
2023-05-05T11:44:09.708Z,1.14
2023-05-05T11:45:09.722Z,1.13
2023-05-05T11:46:09.750Z,1.12
2023-05-05T11:47:09.804Z,1.19
2023-05-05T11:48:09.873Z,1.22
2023-05-05T11:49:10.023Z,1.24
2023-05-05T11:50:10.010Z,1.26
2023-05-05T11:51:09.933Z,1.26
2023-05-05T11:52:09.977Z,1.27
2023-05-05T11:53:10.014Z,1.31
2023-05-05T11:54:10.055Z,1.31
2023-05-05T11:55:10.434Z,1.33
2023-05-05T11:56:10.175Z,1.35
2023-05-05T11:57:10.206Z,1.37
2023-05-05T11:58:10.284Z,1.39
2023-05-05T11:59:10.429Z,1.43
2023-05-05T12:00:10.581Z,1.43
2023-05-05T12:01:10.411Z,1.47
2023-05-05T12:02:10.462Z,1.50
2023-05-05T12:03:10.623Z,1.53
2023-05-05T12:04:10.729Z,1.53
2023-05-05T12:05:11.047Z,1.56
2023-05-05T12:06:10.646Z,1.52
2023-05-05T12:07:10.722Z,1.58
2023-05-05T12:08:10.758Z,1.58
2023-05-05T12:09:10.797Z,1.59
2023-05-05T12:10:10.965Z,1.61
2023-05-05T12:11:10.879Z,1.62
2023-05-05T12:12:10.963Z,1.62
2023-05-05T12:13:11.010Z,1.66
2023-05-05T12:14:11.026Z,1.65
2023-05-05T12:15:11.465Z,1.68
2023-05-05T12:16:11.198Z,1.71
2023-05-05T12:17:11.130Z,1.70
2023-05-05T12:18:11.260Z,1.68
2023-05-05T12:19:11.252Z,1.71
2023-05-05T12:20:11.861Z,1.72
2023-05-05T12:21:11.399Z,1.73
2023-05-05T12:22:11.384Z,1.73
2023-05-05T12:23:11.425Z,1.72
2023-05-05T12:24:11.453Z,1.73
2023-05-05T12:25:11.491Z,1.77
2023-05-05T12:26:11.549Z,1.73
2023-05-05T12:27:11.611Z,1.73
2023-05-05T12:28:11.625Z,1.75
2023-05-05T12:29:11.681Z,1.73
2023-05-05T12:30:11.788Z,1.75
2023-05-05T12:31:11.811Z,1.74
2023-05-05T12:32:11.927Z,1.75
2023-05-05T12:33:11.872Z,1.74
2023-05-05T12:34:11.974Z,1.75
2023-05-05T12:35:12.476Z,1.75
2023-05-05T12:36:12.078Z,1.76
2023-05-05T12:37:12.155Z,1.80
2023-05-05T12:38:12.144Z,1.76
2023-05-05T12:39:12.194Z,1.78
2023-05-05T12:40:12.492Z,1.79
2023-05-05T12:41:12.319Z,1.79
2023-05-05T12:42:12.369Z,1.80
2023-05-05T12:43:12.411Z,1.77
2023-05-05T12:44:12.501Z,1.80
2023-05-05T12:45:12.979Z,1.75
2023-05-05T12:46:12.685Z,1.79
2023-05-05T12:47:12.631Z,1.75
2023-05-05T12:48:12.721Z,1.78
2023-05-05T12:49:12.730Z,1.81
2023-05-05T12:50:12.772Z,1.80
2023-05-05T12:51:12.796Z,1.81
2023-05-05T12:52:12.862Z,1.78
2023-05-05T12:53:12.979Z,1.75
2023-05-05T12:54:12.981Z,1.76
2023-05-05T12:55:13.105Z,1.75
2023-05-05T12:56:13.039Z,1.74
2023-05-05T12:57:13.150Z,1.79
2023-05-05T12:58:13.154Z,1.76
2023-05-05T12:59:13.204Z,1.79
2023-05-05T13:00:13.491Z,1.78
2023-05-05T13:01:20.346Z,1.75
2023-05-05T13:02:13.354Z,1.75
2023-05-05T13:03:13.350Z,1.76
2023-05-05T13:04:13.272Z,1.77
2023-05-05T13:05:13.277Z,1.77
2023-05-05T13:06:13.253Z,1.77
2023-05-05T13:07:13.270Z,1.76
2023-05-05T13:08:13.242Z,1.77
2023-05-05T13:09:13.238Z,1.78
2023-05-05T13:10:13.261Z,1.74
2023-05-05T13:11:13.258Z,1.74
2023-05-05T13:12:13.284Z,1.77
2023-05-05T13:13:13.263Z,1.74
2023-05-05T13:14:13.233Z,1.75
2023-05-05T13:15:13.225Z,1.74
2023-05-05T13:16:13.250Z,1.77
2023-05-05T13:17:13.227Z,1.71
2023-05-05T13:18:13.261Z,1.71
2023-05-05T13:19:13.190Z,1.70